sensor_id;sensor_type;location;lat;lon;timestamp;temperature;humidity
72440;DHT22;60446;50.752;4.352;2023-03-26T00:01:37;8.10;81.60
72440;DHT22;60446;50.752;4.352;2023-03-26T00:04:06;8.20;82.00
72440;DHT22;60446;50.752;4.352;2023-03-26T00:06:35;8.20;81.80
72440;DHT22;60446;50.752;4.352;2023-03-26T00:09:08;8.20;81.90
72440;DHT22;60446;50.752;4.352;2023-03-26T00:11:36;8.10;82.20
72440;DHT22;60446;50.752;4.352;2023-03-26T00:14:03;8.00;82.50
72440;DHT22;60446;50.752;4.352;2023-03-26T00:16:31;8.10;82.60
72440;DHT22;60446;50.752;4.352;2023-03-26T00:18:59;8.10;82.60
72440;DHT22;60446;50.752;4.352;2023-03-26T00:21:29;8.00;82.70
72440;DHT22;60446;50.752;4.352;2023-03-26T00:23:59;8.00;82.90
72440;DHT22;60446;50.752;4.352;2023-03-26T00:26:34;8.00;82.90
72440;DHT22;60446;50.752;4.352;2023-03-26T00:29:04;8.10;82.80
72440;DHT22;60446;50.752;4.352;2023-03-26T00:31:33;8.00;82.50
72440;DHT22;60446;50.752;4.352;2023-03-26T00:34:01;8.00;82.70
72440;DHT22;60446;50.752;4.352;2023-03-26T00:36:29;8.10;82.40
72440;DHT22;60446;50.752;4.352;2023-03-26T00:38:57;8.10;82.60
72440;DHT22;60446;50.752;4.352;2023-03-26T00:41:25;8.10;82.80
72440;DHT22;60446;50.752;4.352;2023-03-26T00:43:58;8.10;83.00
72440;DHT22;60446;50.752;4.352;2023-03-26T00:46:27;8.10;82.80
72440;DHT22;60446;50.752;4.352;2023-03-26T00:48:58;8.10;82.10
72440;DHT22;60446;50.752;4.352;2023-03-26T00:51:27;8.00;82.60
72440;DHT22;60446;50.752;4.352;2023-03-26T00:53:55;8.00;82.80
72440;DHT22;60446;50.752;4.352;2023-03-26T00:56:23;8.00;82.60
72440;DHT22;60446;50.752;4.352;2023-03-26T00:58:51;8.00;81.60
72440;DHT22;60446;50.752;4.352;2023-03-26T01:01:22;7.90;81.40
72440;DHT22;60446;50.752;4.352;2023-03-26T01:03:56;7.90;81.10
72440;DHT22;60446;50.752;4.352;2023-03-26T01:06:37;8.00;80.90
72440;DHT22;60446;50.752;4.352;2023-03-26T01:09:19;8.00;80.30
72440;DHT22;60446;50.752;4.352;2023-03-26T01:11:48;7.90;80.20
72440;DHT22;60446;50.752;4.352;2023-03-26T01:14:18;7.70;81.30
72440;DHT22;60446;50.752;4.352;2023-03-26T01:17:02;7.60;82.20
72440;DHT22;60446;50.752;4.352;2023-03-26T01:19:56;7.50;82.90
72440;DHT22;60446;50.752;4.352;2023-03-26T01:22:34;7.50;82.80
72440;DHT22;60446;50.752;4.352;2023-03-26T01:25:03;7.50;83.10
72440;DHT22;60446;50.752;4.352;2023-03-26T01:27:37;7.50;83.40
72440;DHT22;60446;50.752;4.352;2023-03-26T01:36:16;7.50;83.50
72440;DHT22;60446;50.752;4.352;2023-03-26T01:41:50;7.50;83.20
72440;DHT22;60446;50.752;4.352;2023-03-26T01:44:33;7.50;82.90
72440;DHT22;60446;50.752;4.352;2023-03-26T01:47:05;7.40;83.00
72440;DHT22;60446;50.752;4.352;2023-03-26T01:49:33;7.40;82.60
72440;DHT22;60446;50.752;4.352;2023-03-26T01:52:00;7.40;82.60
72440;DHT22;60446;50.752;4.352;2023-03-26T01:54:30;7.40;82.70
72440;DHT22;60446;50.752;4.352;2023-03-26T01:57:36;7.40;82.70
72440;DHT22;60446;50.752;4.352;2023-03-26T02:00:38;7.40;82.70
72440;DHT22;60446;50.752;4.352;2023-03-26T02:03:30;7.30;83.30
72440;DHT22;60446;50.752;4.352;2023-03-26T02:06:18;7.20;83.40
72440;DHT22;60446;50.752;4.352;2023-03-26T02:08:57;7.30;83.50
72440;DHT22;60446;50.752;4.352;2023-03-26T02:11:27;7.20;83.60
72440;DHT22;60446;50.752;4.352;2023-03-26T02:14:03;7.20;83.40
72440;DHT22;60446;50.752;4.352;2023-03-26T02:16:32;7.20;83.30
72440;DHT22;60446;50.752;4.352;2023-03-26T02:18:59;7.20;83.50
72440;DHT22;60446;50.752;4.352;2023-03-26T02:21:27;7.20;83.60
72440;DHT22;60446;50.752;4.352;2023-03-26T02:23:56;7.20;83.60
72440;DHT22;60446;50.752;4.352;2023-03-26T02:26:33;7.30;83.50
72440;DHT22;60446;50.752;4.352;2023-03-26T02:29:09;7.30;83.20
72440;DHT22;60446;50.752;4.352;2023-03-26T02:31:39;7.30;82.10
72440;DHT22;60446;50.752;4.352;2023-03-26T02:34:06;7.30;83.10
72440;DHT22;60446;50.752;4.352;2023-03-26T02:36:36;7.30;83.00
72440;DHT22;60446;50.752;4.352;2023-03-26T02:39:03;7.30;83.30
72440;DHT22;60446;50.752;4.352;2023-03-26T02:41:35;7.30;82.80
72440;DHT22;60446;50.752;4.352;2023-03-26T02:44:07;7.30;82.80
72440;DHT22;60446;50.752;4.352;2023-03-26T02:46:53;7.40;83.20
72440;DHT22;60446;50.752;4.352;2023-03-26T02:49:38;7.40;83.20
72440;DHT22;60446;50.752;4.352;2023-03-26T02:52:06;7.30;83.10
72440;DHT22;60446;50.752;4.352;2023-03-26T02:54:34;7.30;83.20
72440;DHT22;60446;50.752;4.352;2023-03-26T02:57:13;7.30;83.10
72440;DHT22;60446;50.752;4.352;2023-03-26T02:59:40;7.30;83.30
72440;DHT22;60446;50.752;4.352;2023-03-26T03:02:39;7.40;83.30
72440;DHT22;60446;50.752;4.352;2023-03-26T03:05:27;7.40;83.20
72440;DHT22;60446;50.752;4.352;2023-03-26T03:08:18;7.30;83.00
72440;DHT22;60446;50.752;4.352;2023-03-26T03:11:18;7.30;83.20
72440;DHT22;60446;50.752;4.352;2023-03-26T03:13:52;7.30;82.60
72440;DHT22;60446;50.752;4.352;2023-03-26T03:16:26;7.40;83.00
72440;DHT22;60446;50.752;4.352;2023-03-26T03:18:56;7.30;82.40
72440;DHT22;60446;50.752;4.352;2023-03-26T03:21:50;7.40;82.40
72440;DHT22;60446;50.752;4.352;2023-03-26T03:24:17;7.30;83.00
72440;DHT22;60446;50.752;4.352;2023-03-26T03:26:46;7.30;83.40
72440;DHT22;60446;50.752;4.352;2023-03-26T03:29:42;7.20;83.10
72440;DHT22;60446;50.752;4.352;2023-03-26T03:32:27;7.30;83.00
72440;DHT22;60446;50.752;4.352;2023-03-26T03:34:59;7.30;82.90
72440;DHT22;60446;50.752;4.352;2023-03-26T03:37:27;7.20;82.90
72440;DHT22;60446;50.752;4.352;2023-03-26T03:39:54;7.20;83.40
72440;DHT22;60446;50.752;4.352;2023-03-26T03:42:24;7.20;83.40
72440;DHT22;60446;50.752;4.352;2023-03-26T03:44:55;7.20;83.00
72440;DHT22;60446;50.752;4.352;2023-03-26T03:47:53;7.20;83.10
72440;DHT22;60446;50.752;4.352;2023-03-26T03:50:28;7.10;82.90
72440;DHT22;60446;50.752;4.352;2023-03-26T03:53:14;7.20;83.40
72440;DHT22;60446;50.752;4.352;2023-03-26T03:55:46;7.10;83.50
72440;DHT22;60446;50.752;4.352;2023-03-26T03:58:24;7.10;83.40
72440;DHT22;60446;50.752;4.352;2023-03-26T04:00:58;7.10;83.50
72440;DHT22;60446;50.752;4.352;2023-03-26T04:03:54;7.20;83.00
72440;DHT22;60446;50.752;4.352;2023-03-26T04:06:25;7.20;83.30
72440;DHT22;60446;50.752;4.352;2023-03-26T04:08:56;7.20;82.70
72440;DHT22;60446;50.752;4.352;2023-03-26T04:11:23;7.30;82.50
72440;DHT22;60446;50.752;4.352;2023-03-26T04:14:22;7.30;82.30
72440;DHT22;60446;50.752;4.352;2023-03-26T04:17:02;7.30;82.10
72440;DHT22;60446;50.752;4.352;2023-03-26T04:19:33;7.40;81.40
72440;DHT22;60446;50.752;4.352;2023-03-26T04:22:01;7.40;81.80
72440;DHT22;60446;50.752;4.352;2023-03-26T04:24:33;7.40;82.20
72440;DHT22;60446;50.752;4.352;2023-03-26T04:27:28;7.30;82.20
72440;DHT22;60446;50.752;4.352;2023-03-26T04:30:15;7.40;81.70
72440;DHT22;60446;50.752;4.352;2023-03-26T04:32:45;7.40;82.30
72440;DHT22;60446;50.752;4.352;2023-03-26T04:35:14;7.40;82.00
72440;DHT22;60446;50.752;4.352;2023-03-26T04:37:47;7.40;81.60
72440;DHT22;60446;50.752;4.352;2023-03-26T04:40:23;7.40;81.70
72440;DHT22;60446;50.752;4.352;2023-03-26T04:42:50;7.40;82.10
72440;DHT22;60446;50.752;4.352;2023-03-26T04:45:43;7.40;82.20
72440;DHT22;60446;50.752;4.352;2023-03-26T04:48:14;7.40;82.30
72440;DHT22;60446;50.752;4.352;2023-03-26T04:50:43;7.40;82.00
72440;DHT22;60446;50.752;4.352;2023-03-26T04:53:16;7.40;82.10
72440;DHT22;60446;50.752;4.352;2023-03-26T04:55:59;7.50;82.00
72440;DHT22;60446;50.752;4.352;2023-03-26T04:58:48;7.50;81.70
72440;DHT22;60446;50.752;4.352;2023-03-26T05:01:17;7.40;81.30
72440;DHT22;60446;50.752;4.352;2023-03-26T05:03:45;7.40;79.60
72440;DHT22;60446;50.752;4.352;2023-03-26T05:06:14;7.40;80.50
72440;DHT22;60446;50.752;4.352;2023-03-26T05:08:43;7.50;79.50
72440;DHT22;60446;50.752;4.352;2023-03-26T05:11:18;7.50;79.20
72440;DHT22;60446;50.752;4.352;2023-03-26T05:13:46;7.40;79.60
72440;DHT22;60446;50.752;4.352;2023-03-26T05:16:13;7.40;81.00
72440;DHT22;60446;50.752;4.352;2023-03-26T05:18:47;7.40;81.40
72440;DHT22;60446;50.752;4.352;2023-03-26T05:21:14;7.40;80.30
72440;DHT22;60446;50.752;4.352;2023-03-26T05:23:42;7.40;80.90
72440;DHT22;60446;50.752;4.352;2023-03-26T05:26:16;7.40;81.30
72440;DHT22;60446;50.752;4.352;2023-03-26T05:28:44;7.40;80.80
72440;DHT22;60446;50.752;4.352;2023-03-26T05:31:20;7.40;81.50
72440;DHT22;60446;50.752;4.352;2023-03-26T05:33:49;7.30;81.30
72440;DHT22;60446;50.752;4.352;2023-03-26T05:36:18;7.30;81.50
72440;DHT22;60446;50.752;4.352;2023-03-26T05:39:05;7.30;81.70
72440;DHT22;60446;50.752;4.352;2023-03-26T05:42:11;7.30;81.40
72440;DHT22;60446;50.752;4.352;2023-03-26T05:44:53;7.10;81.10
72440;DHT22;60446;50.752;4.352;2023-03-26T05:47:25;7.10;81.80
72440;DHT22;60446;50.752;4.352;2023-03-26T05:49:53;7.10;82.00
72440;DHT22;60446;50.752;4.352;2023-03-26T05:52:20;7.00;82.10
72440;DHT22;60446;50.752;4.352;2023-03-26T05:55:13;7.00;82.30
72440;DHT22;60446;50.752;4.352;2023-03-26T05:58:00;7.00;82.40
72440;DHT22;60446;50.752;4.352;2023-03-26T06:01:12;6.90;82.90
72440;DHT22;60446;50.752;4.352;2023-03-26T06:04:02;6.90;81.80
72440;DHT22;60446;50.752;4.352;2023-03-26T06:06:35;6.90;82.70
72440;DHT22;60446;50.752;4.352;2023-03-26T06:09:02;6.80;81.80
72440;DHT22;60446;50.752;4.352;2023-03-26T06:11:31;6.80;82.20
72440;DHT22;60446;50.752;4.352;2023-03-26T06:14:00;6.80;82.50
72440;DHT22;60446;50.752;4.352;2023-03-26T06:16:27;6.70;82.90
72440;DHT22;60446;50.752;4.352;2023-03-26T06:19:05;6.70;82.70
72440;DHT22;60446;50.752;4.352;2023-03-26T06:21:46;6.60;82.60
72440;DHT22;60446;50.752;4.352;2023-03-26T06:24:30;6.70;83.10
72440;DHT22;60446;50.752;4.352;2023-03-26T06:27:20;6.60;83.10
72440;DHT22;60446;50.752;4.352;2023-03-26T06:30:08;6.50;83.50
72440;DHT22;60446;50.752;4.352;2023-03-26T06:32:41;6.50;83.30
72440;DHT22;60446;50.752;4.352;2023-03-26T06:35:12;6.50;83.40
72440;DHT22;60446;50.752;4.352;2023-03-26T06:37:40;6.40;83.30
72440;DHT22;60446;50.752;4.352;2023-03-26T06:40:08;6.40;83.50
72440;DHT22;60446;50.752;4.352;2023-03-26T06:42:54;6.50;83.60
72440;DHT22;60446;50.752;4.352;2023-03-26T06:46:02;6.40;83.80
72440;DHT22;60446;50.752;4.352;2023-03-26T06:48:42;6.40;84.00
72440;DHT22;60446;50.752;4.352;2023-03-26T06:51:35;6.50;83.40
72440;DHT22;60446;50.752;4.352;2023-03-26T06:54:07;6.40;82.40
72440;DHT22;60446;50.752;4.352;2023-03-26T06:56:45;6.30;82.60
72440;DHT22;60446;50.752;4.352;2023-03-26T06:59:31;6.30;83.20
72440;DHT22;60446;50.752;4.352;2023-03-26T07:02:17;6.30;83.10
72440;DHT22;60446;50.752;4.352;2023-03-26T07:05:07;6.30;83.80
72440;DHT22;60446;50.752;4.352;2023-03-26T07:07:53;6.30;83.40
72440;DHT22;60446;50.752;4.352;2023-03-26T07:10:20;6.30;83.90
72440;DHT22;60446;50.752;4.352;2023-03-26T07:13:10;6.30;82.80
72440;DHT22;60446;50.752;4.352;2023-03-26T07:15:47;6.30;83.50
72440;DHT22;60446;50.752;4.352;2023-03-26T07:18:33;6.40;83.10
72440;DHT22;60446;50.752;4.352;2023-03-26T07:21:03;6.30;83.60
72440;DHT22;60446;50.752;4.352;2023-03-26T07:23:32;6.30;83.50
72440;DHT22;60446;50.752;4.352;2023-03-26T07:26:33;6.40;83.00
72440;DHT22;60446;50.752;4.352;2023-03-26T07:29:33;6.40;83.40
72440;DHT22;60446;50.752;4.352;2023-03-26T07:32:54;6.40;84.00
72440;DHT22;60446;50.752;4.352;2023-03-26T07:35:54;6.50;83.80
72440;DHT22;60446;50.752;4.352;2023-03-26T07:45:20;6.50;83.20
72440;DHT22;60446;50.752;4.352;2023-03-26T07:48:17;6.50;83.50
72440;DHT22;60446;50.752;4.352;2023-03-26T07:51:16;6.50;83.90
72440;DHT22;60446;50.752;4.352;2023-03-26T07:54:05;6.60;83.60
72440;DHT22;60446;50.752;4.352;2023-03-26T07:56:53;6.70;83.40
72440;DHT22;60446;50.752;4.352;2023-03-26T07:59:37;6.60;83.00
72440;DHT22;60446;50.752;4.352;2023-03-26T08:02:38;6.70;83.10
72440;DHT22;60446;50.752;4.352;2023-03-26T08:05:49;6.60;83.60
72440;DHT22;60446;50.752;4.352;2023-03-26T08:11:56;6.80;83.70
72440;DHT22;60446;50.752;4.352;2023-03-26T08:23:13;6.90;83.00
72440;DHT22;60446;50.752;4.352;2023-03-26T08:25:55;7.00;83.00
72440;DHT22;60446;50.752;4.352;2023-03-26T08:28:41;7.10;83.40
72440;DHT22;60446;50.752;4.352;2023-03-26T08:31:34;7.20;82.90
72440;DHT22;60446;50.752;4.352;2023-03-26T08:34:05;7.30;82.00
72440;DHT22;60446;50.752;4.352;2023-03-26T08:36:35;7.30;82.30
72440;DHT22;60446;50.752;4.352;2023-03-26T08:39:04;7.30;81.90
72440;DHT22;60446;50.752;4.352;2023-03-26T08:53:49;7.50;81.70
72440;DHT22;60446;50.752;4.352;2023-03-26T09:02:08;7.50;82.80
72440;DHT22;60446;50.752;4.352;2023-03-26T09:10:50;7.40;82.50
72440;DHT22;60446;50.752;4.352;2023-03-26T09:13:40;7.50;82.30
72440;DHT22;60446;50.752;4.352;2023-03-26T09:17:02;7.50;82.60
72440;DHT22;60446;50.752;4.352;2023-03-26T09:30:26;7.70;82.80
72440;DHT22;60446;50.752;4.352;2023-03-26T09:47:01;7.70;81.50
72440;DHT22;60446;50.752;4.352;2023-03-26T09:53:02;7.60;80.30
72440;DHT22;60446;50.752;4.352;2023-03-26T09:55:48;7.60;81.40
72440;DHT22;60446;50.752;4.352;2023-03-26T10:10:41;7.30;82.00
72440;DHT22;60446;50.752;4.352;2023-03-26T10:16:33;7.50;81.50
72440;DHT22;60446;50.752;4.352;2023-03-26T10:19:20;7.40;81.70
72440;DHT22;60446;50.752;4.352;2023-03-26T10:51:58;7.50;81.70
72440;DHT22;60446;50.752;4.352;2023-03-26T10:54:55;7.30;82.00
72440;DHT22;60446;50.752;4.352;2023-03-26T10:57:40;7.40;82.10
72440;DHT22;60446;50.752;4.352;2023-03-26T11:00:24;7.40;81.90
72440;DHT22;60446;50.752;4.352;2023-03-26T11:06:27;7.40;81.80
72440;DHT22;60446;50.752;4.352;2023-03-26T11:09:20;7.30;82.70
72440;DHT22;60446;50.752;4.352;2023-03-26T11:20:52;7.50;81.70
72440;DHT22;60446;50.752;4.352;2023-03-26T11:26:55;7.60;82.30
72440;DHT22;60446;50.752;4.352;2023-03-26T11:29:54;7.50;81.60
72440;DHT22;60446;50.752;4.352;2023-03-26T11:32:41;7.60;82.00
72440;DHT22;60446;50.752;4.352;2023-03-26T11:35:18;7.50;81.80
72440;DHT22;60446;50.752;4.352;2023-03-26T11:40:46;7.60;81.80
72440;DHT22;60446;50.752;4.352;2023-03-26T11:43:39;7.70;81.20
72440;DHT22;60446;50.752;4.352;2023-03-26T11:46:11;7.60;81.40
72440;DHT22;60446;50.752;4.352;2023-03-26T11:48:48;7.60;81.20
72440;DHT22;60446;50.752;4.352;2023-03-26T11:51:35;7.50;81.30
72440;DHT22;60446;50.752;4.352;2023-03-26T11:54:05;7.50;81.50
72440;DHT22;60446;50.752;4.352;2023-03-26T11:56:36;7.40;82.10
72440;DHT22;60446;50.752;4.352;2023-03-26T11:59:40;7.40;81.80
72440;DHT22;60446;50.752;4.352;2023-03-26T12:02:28;7.60;82.10
72440;DHT22;60446;50.752;4.352;2023-03-26T12:05:16;7.70;81.70
72440;DHT22;60446;50.752;4.352;2023-03-26T12:07:56;7.70;81.10
72440;DHT22;60446;50.752;4.352;2023-03-26T12:12:58;7.80;81.90
72440;DHT22;60446;50.752;4.352;2023-03-26T12:15:27;7.90;81.40
72440;DHT22;60446;50.752;4.352;2023-03-26T12:17:57;8.00;81.50
72440;DHT22;60446;50.752;4.352;2023-03-26T12:22:57;8.00;80.90
72440;DHT22;60446;50.752;4.352;2023-03-26T12:25:35;7.90;80.20
72440;DHT22;60446;50.752;4.352;2023-03-26T12:31:02;8.10;80.10
72440;DHT22;60446;50.752;4.352;2023-03-26T12:33:32;8.10;79.80
72440;DHT22;60446;50.752;4.352;2023-03-26T12:36:20;8.30;80.80
72440;DHT22;60446;50.752;4.352;2023-03-26T12:38:52;8.40;79.70
72440;DHT22;60446;50.752;4.352;2023-03-26T12:41:40;8.30;79.70
72440;DHT22;60446;50.752;4.352;2023-03-26T12:44:37;8.30;79.40
72440;DHT22;60446;50.752;4.352;2023-03-26T12:47:30;8.20;79.90
72440;DHT22;60446;50.752;4.352;2023-03-26T12:50:22;8.30;79.50
72440;DHT22;60446;50.752;4.352;2023-03-26T12:53:34;8.50;79.40
72440;DHT22;60446;50.752;4.352;2023-03-26T12:56:25;8.70;79.30
72440;DHT22;60446;50.752;4.352;2023-03-26T13:02:32;8.40;78.00
72440;DHT22;60446;50.752;4.352;2023-03-26T13:10:32;8.20;79.10
72440;DHT22;60446;50.752;4.352;2023-03-26T13:13:32;8.20;79.70
72440;DHT22;60446;50.752;4.352;2023-03-26T13:16:23;8.20;81.10
72440;DHT22;60446;50.752;4.352;2023-03-26T13:19:06;8.30;79.10
72440;DHT22;60446;50.752;4.352;2023-03-26T13:22:00;8.20;79.30
72440;DHT22;60446;50.752;4.352;2023-03-26T13:28:16;8.40;81.40
72440;DHT22;60446;50.752;4.352;2023-03-26T13:39:32;8.70;78.30
72440;DHT22;60446;50.752;4.352;2023-03-26T13:45:26;8.50;77.70
72440;DHT22;60446;50.752;4.352;2023-03-26T13:48:20;8.60;78.80
72440;DHT22;60446;50.752;4.352;2023-03-26T13:51:09;8.70;79.30
72440;DHT22;60446;50.752;4.352;2023-03-26T13:53:49;8.70;78.60
72440;DHT22;60446;50.752;4.352;2023-03-26T13:56:28;8.60;77.00
72440;DHT22;60446;50.752;4.352;2023-03-26T13:59:11;8.40;77.20
72440;DHT22;60446;50.752;4.352;2023-03-26T14:01:49;8.40;77.70
72440;DHT22;60446;50.752;4.352;2023-03-26T14:04:45;8.40;77.70
72440;DHT22;60446;50.752;4.352;2023-03-26T14:07:22;8.30;76.50
72440;DHT22;60446;50.752;4.352;2023-03-26T14:10:06;8.20;78.50
72440;DHT22;60446;50.752;4.352;2023-03-26T14:12:43;8.20;77.60
72440;DHT22;60446;50.752;4.352;2023-03-26T14:15:27;8.20;77.50
72440;DHT22;60446;50.752;4.352;2023-03-26T14:21:19;8.20;78.00
72440;DHT22;60446;50.752;4.352;2023-03-26T14:41:52;8.30;79.40
72440;DHT22;60446;50.752;4.352;2023-03-26T14:47:18;8.20;78.50
72440;DHT22;60446;50.752;4.352;2023-03-26T14:50:18;8.40;77.70
72440;DHT22;60446;50.752;4.352;2023-03-26T14:52:53;8.40;77.00
72440;DHT22;60446;50.752;4.352;2023-03-26T15:02:40;8.30;76.40
72440;DHT22;60446;50.752;4.352;2023-03-26T15:05:15;8.10;76.80
72440;DHT22;60446;50.752;4.352;2023-03-26T15:33:19;8.10;78.80
72440;DHT22;60446;50.752;4.352;2023-03-26T15:39:44;8.10;79.50
72440;DHT22;60446;50.752;4.352;2023-03-26T15:49:11;7.90;80.60
72440;DHT22;60446;50.752;4.352;2023-03-26T15:52:11;7.90;81.60
72440;DHT22;60446;50.752;4.352;2023-03-26T15:55:19;8.00;80.30
72440;DHT22;60446;50.752;4.352;2023-03-26T16:00:53;8.10;80.50
72440;DHT22;60446;50.752;4.352;2023-03-26T16:03:44;8.10;80.60
72440;DHT22;60446;50.752;4.352;2023-03-26T16:12:34;8.10;80.70
72440;DHT22;60446;50.752;4.352;2023-03-26T16:15:19;8.10;80.50
72440;DHT22;60446;50.752;4.352;2023-03-26T16:23:53;7.80;81.50
72440;DHT22;60446;50.752;4.352;2023-03-26T16:26:25;7.50;82.20
72440;DHT22;60446;50.752;4.352;2023-03-26T16:29:18;7.60;82.40
72440;DHT22;60446;50.752;4.352;2023-03-26T16:34:44;7.50;82.50
72440;DHT22;60446;50.752;4.352;2023-03-26T16:43:02;7.30;81.00
72440;DHT22;60446;50.752;4.352;2023-03-26T16:52:07;7.30;81.40
72440;DHT22;60446;50.752;4.352;2023-03-26T16:55:17;7.30;80.80
72440;DHT22;60446;50.752;4.352;2023-03-26T16:58:12;7.30;81.10
72440;DHT22;60446;50.752;4.352;2023-03-26T17:01:06;7.40;81.10
72440;DHT22;60446;50.752;4.352;2023-03-26T17:03:46;7.40;80.20
72440;DHT22;60446;50.752;4.352;2023-03-26T17:12:35;7.40;80.90
72440;DHT22;60446;50.752;4.352;2023-03-26T17:21:19;7.30;80.50
72440;DHT22;60446;50.752;4.352;2023-03-26T17:23:58;7.40;80.60
72440;DHT22;60446;50.752;4.352;2023-03-26T17:40:50;7.30;79.40
72440;DHT22;60446;50.752;4.352;2023-03-26T17:43:37;7.30;80.20
72440;DHT22;60446;50.752;4.352;2023-03-26T17:46:40;7.30;79.80
72440;DHT22;60446;50.752;4.352;2023-03-26T17:54:31;7.20;77.20
72440;DHT22;60446;50.752;4.352;2023-03-26T17:57:30;7.20;76.80
72440;DHT22;60446;50.752;4.352;2023-03-26T18:00:06;7.10;76.00
72440;DHT22;60446;50.752;4.352;2023-03-26T18:02:48;7.00;76.50
72440;DHT22;60446;50.752;4.352;2023-03-26T18:05:21;7.00;76.10
72440;DHT22;60446;50.752;4.352;2023-03-26T18:16:40;7.00;76.00
72440;DHT22;60446;50.752;4.352;2023-03-26T18:19:15;7.00;74.70
72440;DHT22;60446;50.752;4.352;2023-03-26T18:22:02;6.90;73.90
72440;DHT22;60446;50.752;4.352;2023-03-26T18:24:38;6.90;74.80
72440;DHT22;60446;50.752;4.352;2023-03-26T18:27:10;6.80;74.60
72440;DHT22;60446;50.752;4.352;2023-03-26T18:29:58;6.80;75.60
72440;DHT22;60446;50.752;4.352;2023-03-26T18:32:31;6.80;75.30
72440;DHT22;60446;50.752;4.352;2023-03-26T18:35:19;6.90;74.60
72440;DHT22;60446;50.752;4.352;2023-03-26T18:37:50;6.90;74.80
72440;DHT22;60446;50.752;4.352;2023-03-26T18:40:21;6.80;74.90
72440;DHT22;60446;50.752;4.352;2023-03-26T18:42:54;6.80;74.20
72440;DHT22;60446;50.752;4.352;2023-03-26T18:45:36;6.70;74.60
72440;DHT22;60446;50.752;4.352;2023-03-26T18:48:14;6.70;74.40
72440;DHT22;60446;50.752;4.352;2023-03-26T18:50:52;6.70;74.60
72440;DHT22;60446;50.752;4.352;2023-03-26T18:53:27;6.60;74.20
72440;DHT22;60446;50.752;4.352;2023-03-26T18:55:56;6.60;74.20
72440;DHT22;60446;50.752;4.352;2023-03-26T18:58:27;6.60;74.60
72440;DHT22;60446;50.752;4.352;2023-03-26T19:01:00;6.50;74.40
72440;DHT22;60446;50.752;4.352;2023-03-26T19:03:31;6.50;73.60
72440;DHT22;60446;50.752;4.352;2023-03-26T19:06:02;6.50;73.60
72440;DHT22;60446;50.752;4.352;2023-03-26T19:08:30;6.50;73.30
72440;DHT22;60446;50.752;4.352;2023-03-26T19:11:01;6.40;71.80
72440;DHT22;60446;50.752;4.352;2023-03-26T19:13:31;6.30;72.60
72440;DHT22;60446;50.752;4.352;2023-03-26T19:16:05;6.30;72.60
72440;DHT22;60446;50.752;4.352;2023-03-26T19:18:36;6.30;73.10
72440;DHT22;60446;50.752;4.352;2023-03-26T19:21:09;6.20;72.20
72440;DHT22;60446;50.752;4.352;2023-03-26T19:23:38;6.20;72.00
72440;DHT22;60446;50.752;4.352;2023-03-26T19:26:10;6.10;72.00
72440;DHT22;60446;50.752;4.352;2023-03-26T19:28:43;6.10;72.20
72440;DHT22;60446;50.752;4.352;2023-03-26T19:33:43;6.10;71.40
72440;DHT22;60446;50.752;4.352;2023-03-26T19:38:49;6.10;70.80
72440;DHT22;60446;50.752;4.352;2023-03-26T19:41:28;6.00;70.50
72440;DHT22;60446;50.752;4.352;2023-03-26T19:44:27;6.00;72.00
72440;DHT22;60446;50.752;4.352;2023-03-26T19:47:22;6.00;69.40
72440;DHT22;60446;50.752;4.352;2023-03-26T19:50:32;5.90;69.80
72440;DHT22;60446;50.752;4.352;2023-03-26T19:53:22;5.80;68.70
72440;DHT22;60446;50.752;4.352;2023-03-26T19:56:08;5.80;68.00
72440;DHT22;60446;50.752;4.352;2023-03-26T19:58:39;5.80;68.10
72440;DHT22;60446;50.752;4.352;2023-03-26T20:01:17;5.70;67.60
72440;DHT22;60446;50.752;4.352;2023-03-26T20:03:49;5.70;67.90
72440;DHT22;60446;50.752;4.352;2023-03-26T20:06:20;5.70;67.90
72440;DHT22;60446;50.752;4.352;2023-03-26T20:09:00;5.70;68.40
72440;DHT22;60446;50.752;4.352;2023-03-26T20:11:35;5.70;66.80
72440;DHT22;60446;50.752;4.352;2023-03-26T20:14:13;5.60;66.10
72440;DHT22;60446;50.752;4.352;2023-03-26T20:16:42;5.60;66.90
72440;DHT22;60446;50.752;4.352;2023-03-26T20:19:11;5.60;65.80
72440;DHT22;60446;50.752;4.352;2023-03-26T20:21:40;5.60;65.40
72440;DHT22;60446;50.752;4.352;2023-03-26T20:24:11;5.50;64.30
72440;DHT22;60446;50.752;4.352;2023-03-26T20:26:41;5.50;64.50
72440;DHT22;60446;50.752;4.352;2023-03-26T20:29:09;5.50;63.40
72440;DHT22;60446;50.752;4.352;2023-03-26T20:31:38;5.50;63.70
72440;DHT22;60446;50.752;4.352;2023-03-26T20:34:19;5.50;63.70
72440;DHT22;60446;50.752;4.352;2023-03-26T20:36:49;5.40;63.70
72440;DHT22;60446;50.752;4.352;2023-03-26T20:39:23;5.40;64.50
72440;DHT22;60446;50.752;4.352;2023-03-26T20:41:52;5.40;64.90
72440;DHT22;60446;50.752;4.352;2023-03-26T20:44:20;5.40;64.20
72440;DHT22;60446;50.752;4.352;2023-03-26T20:46:49;5.40;64.50
72440;DHT22;60446;50.752;4.352;2023-03-26T20:49:17;5.40;65.10
72440;DHT22;60446;50.752;4.352;2023-03-26T20:51:47;5.30;64.00
72440;DHT22;60446;50.752;4.352;2023-03-26T20:54:21;5.40;63.30
72440;DHT22;60446;50.752;4.352;2023-03-26T20:56:51;5.30;62.60
72440;DHT22;60446;50.752;4.352;2023-03-26T20:59:22;5.20;62.20
72440;DHT22;60446;50.752;4.352;2023-03-26T21:01:53;5.20;62.10
72440;DHT22;60446;50.752;4.352;2023-03-26T21:04:22;5.30;61.70
72440;DHT22;60446;50.752;4.352;2023-03-26T21:06:50;5.20;60.40
72440;DHT22;60446;50.752;4.352;2023-03-26T21:09:29;5.20;61.40
72440;DHT22;60446;50.752;4.352;2023-03-26T21:12:08;5.20;61.00
72440;DHT22;60446;50.752;4.352;2023-03-26T21:14:42;5.20;60.20
72440;DHT22;60446;50.752;4.352;2023-03-26T21:17:15;5.10;60.40
72440;DHT22;60446;50.752;4.352;2023-03-26T21:19:44;5.10;58.80
72440;DHT22;60446;50.752;4.352;2023-03-26T21:25:02;5.10;58.60
72440;DHT22;60446;50.752;4.352;2023-03-26T21:27:59;5.10;59.30
72440;DHT22;60446;50.752;4.352;2023-03-26T21:30:35;5.10;60.20
72440;DHT22;60446;50.752;4.352;2023-03-26T21:33:03;5.10;59.80
72440;DHT22;60446;50.752;4.352;2023-03-26T21:35:31;5.10;60.60
72440;DHT22;60446;50.752;4.352;2023-03-26T21:38:02;5.10;60.60
72440;DHT22;60446;50.752;4.352;2023-03-26T21:40:31;5.10;60.50
72440;DHT22;60446;50.752;4.352;2023-03-26T21:42:59;5.10;60.90
72440;DHT22;60446;50.752;4.352;2023-03-26T21:45:26;5.10;60.70
72440;DHT22;60446;50.752;4.352;2023-03-26T21:47:54;5.10;61.00
72440;DHT22;60446;50.752;4.352;2023-03-26T21:50:22;5.10;61.40
72440;DHT22;60446;50.752;4.352;2023-03-26T21:52:50;5.10;61.60
72440;DHT22;60446;50.752;4.352;2023-03-26T21:55:20;5.10;61.30
72440;DHT22;60446;50.752;4.352;2023-03-26T22:00:22;5.10;62.20
72440;DHT22;60446;50.752;4.352;2023-03-26T22:09:23;5.10;62.80
72440;DHT22;60446;50.752;4.352;2023-03-26T22:12:02;5.10;62.10
72440;DHT22;60446;50.752;4.352;2023-03-26T22:14:30;5.10;62.20
72440;DHT22;60446;50.752;4.352;2023-03-26T22:16:57;5.00;61.90
72440;DHT22;60446;50.752;4.352;2023-03-26T22:19:24;5.00;63.00
72440;DHT22;60446;50.752;4.352;2023-03-26T22:21:51;5.10;62.90
72440;DHT22;60446;50.752;4.352;2023-03-26T22:24:20;5.00;63.00
72440;DHT22;60446;50.752;4.352;2023-03-26T22:26:47;5.10;63.80